Thursday, February 22, 2018, 5:28 AM EST
Back to Local

KPQI, Presque Isle

Location: Presque Isle, ME, United States Lat: 46.683
Local Time: 5:28 AM EST (10:28 GMT) Lon: -68.05
Time Zone: US/Eastern Elev: 534 ft

Show me the last for .
Show Coded

Time T Td Feel RH Dir Speed Gust Alt SLP Vis Weather Sky Remarks
2018-02-22 04:56 15 3 3 58 320° 10 - 30.59 30.73 10 CLR None
2018-02-22 03:56 16 5 7 61 350° 6 - 30.56 30.70 10 CLR None
2018-02-22 02:56 18 5 10 56 320° 6 - 30.52 30.66 10 CLR None
2018-02-22 01:56 20 5 3 51 310° 17 23 30.49 30.63 10 CLR None
2018-02-22 00:56 22 7 7 51 330° 12 21 30.46 30.60 10 CLR Pressure rising rapidly
6-hr Min Temp (1am): 21.9°F
6-hr Max Temp (1am): 46.0°F
2018-02-21 23:56 25 10 13 52 330° 14 - 30.40 30.53 10 CLR 24-hr Min Temp (12am): 25.0°F
24-hr Max Temp (12am): 52.0°F
2018-02-21 22:56 28 11 14 48 320° 16 23 30.34 30.47 10 CLR None
2018-02-21 21:56 31 16 16 53 300° 14 31 30.29 30.42 10 CLR Peak wind: 34 mph (30 kts) from 330° at 15 min
2018-02-21 20:56 37 23 24 56 330° 18 30 30.22 30.36 10 OVC039 Peak wind: 29 mph (26 kts) from 330° at 48 min
2018-02-21 19:56 39 32 31 75 340° 13 - 30.16 30.29 10 FEW044 None
2018-02-21 18:56 46 37 39 70 280° 17 - 30.06 30.20 10 SCT100 Pressure rising rapidly
6-hr Precip Total (7pm): 0.00"
6-hr Min Temp (7pm): 39.9°F
6-hr Max Temp (7pm): 52.0°F
2018-02-21 17:56 48 39 43 70 260° 13 - 30.01 30.15 10 OVC085 None
2018-02-21 16:56 51 45 - 79 260° 10 - 29.96 30.09 10 FEW039 BKN049 OVC060 Pressure rising rapidly
1-hr Precip Total: Trace
2018-02-21 16:44 52 46 - 81 260° 13 29 29.94 - 10 FEW013 BKN040 OVC047 1-hr Precip Total: Trace
2018-02-21 16:12 45 45 43 100 320° 3 - 29.91 - 4 BR BKN018 OVC023 Pressure rising rapidly
2018-02-21 16:02 43 41 - 93 - Calm - 29.90 - 1 BR BKN022 OVC070 Variable visibility
Pressure rising rapidly
2018-02-21 15:56 43 42 - 96 - Calm - 29.89 30.02 4 BR BKN024 BKN055 OVC070 None
2018-02-21 14:56 41 40 39 95 170° 3 - 29.87 30.00 10 BKN045 OVC055 None
2018-02-21 14:21 41 39 36 93 150° 8 - 29.86 - 10 SCT026 OVC042 None
2018-02-21 13:56 40 39 34 96 160° 8 - 29.87 30.00 10 OVC028 None
2018-02-21 13:24 39 37 32 93 160° 10 - 29.86 - 10 OVC028 None
2018-02-21 12:56 40 38 35 92 160° 7 - 29.88 30.01 10 OVC030 6-hr Min Temp (1pm): 32.0°F
6-hr Max Temp (1pm): 39.9°F
2018-02-21 12:49 39 37 32 93 160° 10 - 29.88 - 10 OVC030 None
2018-02-21 11:56 39 36 32 88 150° 10 - 29.92 30.06 10 OVC029 None
2018-02-21 11:48 39 36 32 86 150° 10 - 29.92 - 10 OVC029 None
2018-02-21 11:20 39 36 33 86 150° 9 - 29.94 - 10 SCT004 OVC033 None
2018-02-21 10:56 38 35 34 89 140° 5 - 29.96 30.09 10 BKN004 BKN034 OVC044 None
2018-02-21 09:56 36 35 30 96 140° 7 - 29.98 30.11 10 OVC004 None
2018-02-21 08:56 33 32 26 95 140° 8 - 29.99 30.13 4 BR OVC004 None
2018-02-21 07:56 32 31 24 95 160° 9 - 30.01 30.14 4 BR OVC004 None
2018-02-21 07:42 32 30 24 92 140° 9 - 30.02 - 3 BR OVC004 None
2018-02-21 07:29 32 30 25 92 150° 8 - 30.02 - 2 BR OVC004 None
2018-02-21 06:56 32 31 23 95 150° 12 - 30.03 30.16 1 BR OVC004 1-hr Precip Total: Trace
6-hr Precip Total (7am): 0.03"
24-hr Precip Total (7am): 0.08"
6-hr Min Temp (7am): 30.0°F
6-hr Max Temp (7am): 32.0°F
2018-02-21 06:47 32 30 24 92 150° 10 - 30.03 - 2 BR OVC004 1-hr Precip Total: Trace
2018-02-21 06:26 32 30 24 92 140° 9 - 30.04 - 10 OVC004 1-hr Precip Total: Trace
2018-02-21 05:56 32 30 23 92 140° 12 - 30.06 30.19 10 UP OVC006 1-hr Precip Total: 0.02"
2018-02-21 05:35 32 30 24 92 150° 10 - 30.07 - 10 UP OVC006 1-hr Precip Total: 0.01"

Support USWX by starting your Amazon purchase here.